Time;durP1;ratioP1;P1;durP2;ratioP2;P2;SDS_P1;SDS_P2;PMS_P1;PMS_P2;Temp;Humidity;BMP_temperature;BMP_pressure;BME280_temperature;BME280_humidity;BME280_pressure;Samples;Min_cycle;Max_cycle;Signal;HPM_P1;HPM_P2
2022/07/23 00:01:56;;;;;;;7.47;6.77;;;;;;;28.23;35.47;95342.53;6283892;27;103173;-58
2022/07/23 00:05:00;;;;;;;7.13;6.00;;;;;;;28.26;34.96;95341.84;6272724;27;103161;-58
2022/07/23 00:08:03;;;;;;;6.40;6.00;;;;;;;28.23;35.31;95345.22;6264756;27;103605;-58
2022/07/23 00:11:07;;;;;;;6.93;6.43;;;;;;;28.18;34.86;95353.50;6253499;27;105247;-59
2022/07/23 00:14:10;;;;;;;6.03;5.63;;;;;;;28.04;35.58;95353.84;6275932;27;103051;-54
2022/07/23 00:17:14;;;;;;;7.37;6.67;;;;;;;27.90;35.48;95354.19;6267040;27;102945;-58
2022/07/23 00:20:17;;;;;;;6.77;6.17;;;;;;;27.78;36.19;95351.47;6263766;27;103365;-57
2022/07/23 00:23:20;;;;;;;6.83;6.33;;;;;;;27.65;35.97;95355.25;6255461;27;103233;-59
2022/07/23 00:26:24;;;;;;;7.93;6.87;;;;;;;27.57;36.22;95356.94;6281335;27;103124;-57
2022/07/23 00:29:27;;;;;;;7.23;6.63;;;;;;;27.52;37.11;95372.47;6258968;27;103037;-57
2022/07/23 00:32:31;;;;;;;9.00;7.30;;;;;;;27.47;36.47;95368.09;6266178;27;103984;-55
2022/07/23 00:35:54;;;;;;;7.90;7.30;;;;;;;27.42;36.75;95361.03;6259602;27;102751;-56
2022/07/23 00:38:57;;;;;;;8.73;8.00;;;;;;;27.54;37.04;95368.31;6266268;27;104636;-57
2022/07/23 00:42:02;;;;;;;8.37;7.63;;;;;;;27.64;36.65;95367.13;6258981;27;103460;-59
2022/07/23 00:45:06;;;;;;;7.50;7.00;;;;;;;27.73;36.33;95352.47;6249996;27;104632;-58
2022/07/23 00:48:09;;;;;;;8.43;7.87;;;;;;;27.83;36.53;95359.31;6283776;27;104480;-59
2022/07/23 00:51:12;;;;;;;8.77;7.87;;;;;;;27.88;36.13;95361.78;6278275;27;103378;-60
2022/07/23 00:54:15;;;;;;;8.10;7.30;;;;;;;27.93;36.58;95358.13;6278714;27;102973;-59
2022/07/23 00:57:20;;;;;;;8.50;7.70;;;;;;;27.95;36.42;95353.97;6264561;27;103033;-58
2022/07/23 01:00:30;;;;;;;8.10;7.40;;;;;;;27.98;35.75;95355.97;6266363;27;103144;-59
2022/07/23 01:03:33;;;;;;;8.10;7.40;;;;;;;27.99;36.25;95354.84;6275402;27;104128;-56
2022/07/23 01:06:38;;;;;;;7.70;7.10;;;;;;;27.87;36.14;95354.06;6248820;27;103439;-57
2022/07/23 01:09:41;;;;;;;7.53;6.93;;;;;;;27.70;36.97;95349.63;6281267;27;102915;-57
2022/07/23 01:12:46;;;;;;;8.10;7.40;;;;;;;27.57;37.11;95351.56;6273252;27;104303;-56
2022/07/23 01:15:49;;;;;;;7.60;6.90;;;;;;;27.45;37.10;95349.59;6271750;27;102684;-53
2022/07/23 01:18:52;;;;;;;9.00;7.30;;;;;;;27.40;37.15;95351.72;6273386;27;103120;-53
2022/07/23 01:21:59;;;;;;;7.27;6.57;;;;;;;27.35;36.73;95346.56;6267629;27;104067;-54
2022/07/23 01:25:04;;;;;;;7.07;6.57;;;;;;;27.32;36.43;95341.84;6266211;27;103012;-53
2022/07/23 01:28:07;;;;;;;6.70;6.20;;;;;;;27.26;37.22;95337.81;6259774;27;102998;-53
2022/07/23 01:31:10;;;;;;;7.40;6.83;;;;;;;27.26;36.73;95338.59;6269191;27;103129;-53
2022/07/23 01:34:13;;;;;;;7.57;6.53;;;;;;;27.39;36.38;95339.41;6272171;27;104023;-53
2022/07/23 01:37:17;;;;;;;7.17;6.57;;;;;;;27.51;36.76;95335.94;6272563;27;104303;-53
2022/07/23 01:40:21;;;;;;;6.47;6.00;;;;;;;27.60;36.38;95329.38;6274111;27;105994;-53
2022/07/23 01:43:26;;;;;;;6.93;6.23;;;;;;;27.68;36.63;95330.38;6256574;27;103991;-53
2022/07/23 01:46:29;;;;;;;6.93;6.27;;;;;;;27.73;35.99;95338.25;6273305;27;103121;-53
2022/07/23 01:49:32;;;;;;;7.23;6.63;;;;;;;27.79;35.80;95336.88;6264130;27;104207;-54
2022/07/23 01:52:35;;;;;;;7.27;6.63;;;;;;;27.83;35.45;95335.09;6267942;27;103999;-53
2022/07/23 01:55:40;;;;;;;6.77;6.17;;;;;;;27.84;35.46;95342.03;6279491;27;102834;-53
2022/07/23 01:58:43;;;;;;;6.77;6.27;;;;;;;27.70;36.47;95334.28;6264963;27;103913;-53
2022/07/23 02:01:46;;;;;;;7.10;6.60;;;;;;;27.58;36.62;95341.56;6272881;27;103335;-53
2022/07/23 02:04:49;;;;;;;6.67;6.13;;;;;;;27.45;36.78;95348.81;6267937;27;104450;-54
2022/07/23 02:07:54;;;;;;;7.03;6.50;;;;;;;27.37;36.41;95341.63;6275030;27;104304;-54
2022/07/23 02:10:58;;;;;;;7.40;6.73;;;;;;;27.28;36.95;95344.41;6288291;27;103950;-54
2022/07/23 02:14:02;;;;;;;6.37;5.87;;;;;;;27.22;36.57;95345.72;6282687;27;103212;-53
2022/07/23 02:17:05;;;;;;;7.47;6.53;;;;;;;27.21;36.62;95343.34;6284627;27;104250;-53
2022/07/23 02:20:10;;;;;;;6.80;6.30;;;;;;;27.16;36.23;95344.34;6275202;27;103149;-53
2022/07/23 02:23:13;;;;;;;6.47;6.07;;;;;;;27.12;36.51;95340.75;6263524;27;102851;-53
2022/07/23 02:26:17;;;;;;;6.87;6.17;;;;;;;27.23;36.84;95344.59;6276746;27;103441;-53
2022/07/23 02:29:22;;;;;;;7.37;6.67;;;;;;;27.37;36.35;95342.41;6269958;27;104017;-53
2022/07/23 02:32:26;;;;;;;6.60;6.10;;;;;;;27.43;36.13;95343.78;6276658;27;104154;-53
2022/07/23 02:35:29;;;;;;;7.27;6.53;;;;;;;27.51;35.97;95342.09;6271813;27;104289;-53
2022/07/23 02:38:32;;;;;;;7.13;6.60;;;;;;;27.54;36.26;95351.41;6260118;27;104208;-53
2022/07/23 02:41:36;;;;;;;6.80;6.20;;;;;;;27.57;36.26;95350.75;6275590;27;103295;-52
2022/07/23 02:44:39;;;;;;;6.90;6.20;;;;;;;27.61;36.13;95351.66;6267448;27;104053;-53
2022/07/23 02:47:42;;;;;;;7.87;7.03;;;;;;;27.64;35.93;95356.38;6279709;27;102931;-53
2022/07/23 02:50:46;;;;;;;7.50;6.80;;;;;;;27.55;35.86;95358.34;6275031;27;103518;-53
2022/07/23 02:53:49;;;;;;;7.27;6.67;;;;;;;27.41;36.69;95361.38;6278693;27;103154;-53
2022/07/23 02:56:53;;;;;;;8.30;7.70;;;;;;;27.30;36.70;95363.69;6278112;27;104270;-52
2022/07/23 02:59:57;;;;;;;11.20;10.10;;;;;;;27.24;36.97;95361.50;6256111;27;104340;-53
2022/07/23 03:03:00;;;;;;;12.73;11.60;;;;;;;27.18;36.61;95364.38;6265323;27;102969;-53
2022/07/23 03:06:03;;;;;;;10.60;9.80;;;;;;;27.07;37.21;95365.94;6261962;27;104364;-52
2022/07/23 03:09:07;;;;;;;9.10;8.50;;;;;;;27.00;37.12;95375.63;6279120;27;103196;-53
2022/07/23 03:12:12;;;;;;;8.30;7.60;;;;;;;26.96;37.20;95372.81;6258371;27;103164;-54
2022/07/23 03:15:16;;;;;;;8.40;7.70;;;;;;;26.91;37.49;95372.22;6284527;27;103981;-53
2022/07/23 03:18:19;;;;;;;7.60;7.00;;;;;;;26.91;37.78;95373.03;6277319;27;104174;-53
2022/07/23 03:21:22;;;;;;;8.30;7.70;;;;;;;27.02;37.42;95384.13;6277494;27;102999;-53
2022/07/23 03:24:53;;;;;;;8.67;7.97;;;;;;;27.09;37.16;95387.09;6261270;27;103506;-53
2022/07/23 03:27:50;;;;;;;8.03;7.50;;;;;;;27.15;37.04;95385.75;6273943;27;104146;-52
2022/07/23 03:30:53;;;;;;;10.20;9.20;;;;;;;27.24;37.11;95389.16;6270618;27;102860;-53
2022/07/23 03:33:57;;;;;;;11.00;10.20;;;;;;;27.30;36.96;95389.78;6268170;27;104120;-54
2022/07/23 03:37:00;;;;;;;10.27;9.47;;;;;;;27.34;36.82;95386.09;6275922;27;103371;-53
2022/07/23 03:40:06;;;;;;;11.23;9.70;;;;;;;27.44;36.90;95391.06;6267364;27;103941;-52
2022/07/23 03:43:10;;;;;;;10.27;9.27;;;;;;;27.43;36.59;95386.78;6268358;27;104276;-52
2022/07/23 03:46:13;;;;;;;9.53;8.53;;;;;;;27.26;37.43;95389.66;6247368;27;102988;-53
2022/07/23 03:49:17;;;;;;;9.03;8.20;;;;;;;27.18;36.94;95393.16;6259050;27;104426;-52
2022/07/23 03:52:21;;;;;;;8.80;8.10;;;;;;;26.98;36.96;95392.06;6259684;27;104414;-59
2022/07/23 03:55:24;;;;;;;13.00;11.70;;;;;;;26.39;38.48;95402.88;6253857;27;104192;-58
2022/07/23 03:58:29;;;;;;;11.90;9.50;;;;;;;25.83;39.45;95401.34;6254601;27;103595;-57
2022/07/23 04:01:32;;;;;;;11.37;8.43;;;;;;;25.47;39.62;95399.88;6260422;27;103112;-55
2022/07/23 04:04:35;;;;;;;17.13;8.67;;;;;;;25.48;40.28;95395.28;6263547;27;103255;-54
2022/07/23 04:07:38;;;;;;;10.90;8.23;;;;;;;25.85;39.78;95402.59;6271644;27;104289;-56
2022/07/23 04:10:41;;;;;;;9.43;8.30;;;;;;;26.42;38.73;95402.22;6256717;27;103961;-56
2022/07/23 04:13:46;;;;;;;8.50;7.80;;;;;;;26.82;38.14;95391.88;6263470;27;103238;-56
2022/07/23 04:16:49;;;;;;;8.47;7.53;;;;;;;27.07;37.45;95394.69;6270054;27;104012;-56
2022/07/23 04:19:52;;;;;;;8.60;7.23;;;;;;;27.24;37.71;95391.84;6262227;27;104171;-56
2022/07/23 04:22:55;;;;;;;8.60;7.80;;;;;;;27.40;37.42;95392.84;6277591;27;104183;-57
2022/07/23 04:25:59;;;;;;;8.70;7.13;;;;;;;27.51;36.55;95397.78;6282481;27;103061;-55
2022/07/23 04:29:03;;;;;;;10.00;8.93;;;;;;;27.44;37.34;95401.81;6261288;27;103057;-56
2022/07/23 04:32:07;;;;;;;10.87;8.40;;;;;;;27.54;37.39;95410.56;6264621;27;105156;-57
2022/07/23 04:35:10;;;;;;;8.77;7.33;;;;;;;27.35;37.44;95398.41;6261516;27;103981;-56
2022/07/23 04:38:13;;;;;;;8.77;8.07;;;;;;;26.81;37.72;95401.03;6262767;27;104038;-56
2022/07/23 04:41:16;;;;;;;12.10;10.83;;;;;;;26.47;38.24;95411.97;6259724;27;103361;-57
2022/07/23 04:44:21;;;;;;;13.80;12.40;;;;;;;26.23;39.38;95408.00;6263694;27;103899;-55
2022/07/23 04:47:24;;;;;;;11.43;9.40;;;;;;;25.93;40.14;95409.06;6271483;27;104051;-56
2022/07/23 04:50:30;;;;;;;13.70;8.77;;;;;;;25.86;39.95;95411.44;6263798;27;103335;-55
2022/07/23 04:53:33;;;;;;;10.33;7.87;;;;;;;25.51;40.11;95408.84;6251606;27;104848;-54
2022/07/23 04:56:36;;;;;;;8.63;7.73;;;;;;;25.03;40.70;95412.50;6271478;27;104176;-54
2022/07/23 04:59:40;;;;;;;9.83;8.23;;;;;;;24.99;41.17;95414.22;6272990;27;103163;-56
2022/07/23 05:02:44;;;;;;;8.70;7.90;;;;;;;24.78;41.60;95411.38;6261285;27;103861;-56
2022/07/23 05:05:47;;;;;;;12.20;8.40;;;;;;;24.88;41.78;95418.34;6250994;27;104272;-55
2022/07/23 05:08:50;;;;;;;10.67;7.77;;;;;;;25.07;41.21;95421.47;6273590;27;103384;-55
2022/07/23 05:11:53;;;;;;;10.60;8.30;;;;;;;25.29;41.15;95419.72;6268077;27;103367;-54
2022/07/23 05:14:58;;;;;;;12.63;8.47;;;;;;;24.88;42.03;95417.53;6259376;27;103439;-55
2022/07/23 05:18:01;;;;;;;10.03;8.73;;;;;;;25.09;41.64;95421.16;6264377;27;103780;-54
2022/07/23 05:21:04;;;;;;;9.20;8.17;;;;;;;25.27;41.30;95421.94;6268400;27;103315;-54
2022/07/23 05:24:08;;;;;;;10.40;8.13;;;;;;;25.28;41.09;95418.94;6272623;27;103269;-54
2022/07/23 05:27:11;;;;;;;16.77;8.77;;;;;;;25.46;41.21;95421.63;6260271;27;104061;-55
2022/07/23 05:30:16;;;;;;;13.50;9.70;;;;;;;25.75;40.58;95427.09;6266250;27;105337;-55
2022/07/23 05:33:20;;;;;;;14.00;9.60;;;;;;;25.81;40.37;95433.84;6265175;27;103136;-57
2022/07/23 05:36:23;;;;;;;8.57;7.73;;;;;;;25.83;40.81;95425.47;6267824;27;102751;-54
2022/07/23 05:39:26;;;;;;;13.83;8.10;;;;;;;25.56;41.11;95432.81;6268890;27;104151;-54
2022/07/23 05:42:29;;;;;;;13.13;8.57;;;;;;;25.62;40.94;95423.50;6270836;27;103071;-56
2022/07/23 05:45:34;;;;;;;9.73;8.83;;;;;;;25.52;41.33;95425.72;6274898;27;103366;-54
2022/07/23 05:48:37;;;;;;;11.80;9.50;;;;;;;25.82;41.11;95419.34;6274677;27;103315;-54
2022/07/23 05:51:44;;;;;;;13.10;9.10;;;;;;;25.63;41.07;95426.94;6255301;27;103444;-54
2022/07/23 05:54:48;;;;;;;10.80;9.30;;;;;;;25.75;41.12;95426.31;6257712;27;104061;-54
2022/07/23 05:57:51;;;;;;;14.40;9.17;;;;;;;25.87;41.12;95431.78;6276969;27;102965;-54
2022/07/23 06:00:56;;;;;;;11.80;8.90;;;;;;;25.95;40.81;95430.97;6277406;27;103197;-54
2022/07/23 06:03:59;;;;;;;9.83;9.07;;;;;;;26.14;40.83;95434.06;6253638;27;103495;-58
2022/07/23 06:07:03;;;;;;;10.77;9.77;;;;;;;26.34;40.33;95423.72;6275766;27;104052;-57
2022/07/23 06:10:07;;;;;;;9.67;8.73;;;;;;;26.41;39.88;95426.69;6271482;27;104387;-57
2022/07/23 06:13:11;;;;;;;11.17;10.00;;;;;;;26.41;39.52;95419.44;6250546;27;104147;-57
2022/07/23 06:16:15;;;;;;;10.43;9.33;;;;;;;26.64;39.25;95421.84;6271426;27;104379;-59
2022/07/23 06:19:18;;;;;;;14.80;9.50;;;;;;;26.60;39.41;95415.53;6272855;27;103002;-59
2022/07/23 06:22:22;;;;;;;11.17;9.57;;;;;;;26.84;39.82;95418.41;6267327;27;104185;-57
2022/07/23 06:25:25;;;;;;;12.60;9.73;;;;;;;26.93;39.92;95418.34;6241520;27;104644;-57
2022/07/23 06:28:28;;;;;;;12.23;10.73;;;;;;;27.08;39.40;95417.75;6259363;27;103302;-58
2022/07/23 06:31:33;;;;;;;11.27;10.10;;;;;;;27.15;38.54;95410.72;6255995;27;103144;-58
2022/07/23 06:34:36;;;;;;;9.30;8.50;;;;;;;27.31;39.44;95413.63;6255033;27;103277;-58
2022/07/23 06:37:39;;;;;;;10.50;9.43;;;;;;;27.29;38.64;95410.47;6261145;27;102979;-58
2022/07/23 06:40:43;;;;;;;12.70;9.17;;;;;;;27.29;38.54;95412.38;6284302;27;104421;-57
2022/07/23 06:43:46;;;;;;;20.20;9.97;;;;;;;27.49;39.22;95411.56;6261646;27;103325;-57
2022/07/23 06:46:51;;;;;;;16.33;8.50;;;;;;;27.57;38.05;95415.28;6253780;27;104313;-58
2022/07/23 06:49:54;;;;;;;10.20;8.77;;;;;;;27.62;38.77;95410.47;6256481;27;103149;-57
2022/07/23 06:52:57;;;;;;;10.67;9.57;;;;;;;27.73;38.04;95408.16;6259569;27;102968;-57
2022/07/23 06:56:00;;;;;;;20.30;9.43;;;;;;;27.83;37.85;95413.09;6262610;27;104225;-57
2022/07/23 06:59:03;;;;;;;13.20;9.50;;;;;;;27.88;38.23;95407.53;6252769;27;103134;-57
2022/07/23 07:02:10;;;;;;;12.00;9.43;;;;;;;27.93;38.28;95412.72;6259253;27;104035;-57
2022/07/23 07:05:13;;;;;;;11.47;9.27;;;;;;;27.97;37.75;95402.06;6262351;27;104039;-56
2022/07/23 07:08:17;;;;;;;10.93;8.60;;;;;;;28.03;37.93;95401.50;6261165;27;104375;-56
2022/07/23 07:11:20;;;;;;;11.40;8.80;;;;;;;27.81;38.70;95404.56;6248735;27;103875;-54
2022/07/23 07:14:23;;;;;;;10.30;9.23;;;;;;;27.68;38.73;95400.28;6258886;27;103024;-55
2022/07/23 07:17:27;;;;;;;10.43;9.33;;;;;;;27.60;39.11;95396.59;6260687;27;103480;-56
2022/07/23 07:20:30;;;;;;;11.33;9.97;;;;;;;27.55;39.61;95396.00;6255858;27;104033;-57
2022/07/23 07:23:34;;;;;;;14.47;10.60;;;;;;;27.54;39.32;95391.72;6251364;27;103190;-57
2022/07/23 07:26:38;;;;;;;11.70;10.50;;;;;;;27.64;39.07;95384.03;6261764;27;103313;-57
2022/07/23 07:29:41;;;;;;;15.33;9.97;;;;;;;27.78;39.03;95391.81;6261062;27;104610;-57
2022/07/23 07:32:46;;;;;;;12.17;10.13;;;;;;;27.93;38.95;95385.81;6248519;27;104311;-56
2022/07/23 07:36:00;;;;;;;10.90;9.83;;;;;;;28.04;39.02;95383.44;6261037;27;104005;-56
2022/07/23 07:39:03;;;;;;;10.83;9.73;;;;;;;28.13;38.53;95378.75;6261269;27;102739;-57
2022/07/23 07:42:07;;;;;;;12.27;10.33;;;;;;;28.18;37.85;95377.72;6259293;27;103942;-58
2022/07/23 07:45:10;;;;;;;10.57;9.57;;;;;;;28.21;38.56;95371.66;6248793;27;103485;-58
2022/07/23 07:48:15;;;;;;;10.97;9.97;;;;;;;28.25;37.93;95370.69;6262051;27;104114;-57
2022/07/23 07:51:18;;;;;;;11.57;10.17;;;;;;;28.27;38.08;95368.44;6259720;27;104239;-57
2022/07/23 07:54:22;;;;;;;11.00;10.00;;;;;;;28.29;38.49;95376.94;6256698;27;104218;-58
2022/07/23 07:57:25;;;;;;;12.73;9.70;;;;;;;28.35;38.22;95378.28;6254092;27;104073;-57
2022/07/23 08:00:28;;;;;;;10.70;9.47;;;;;;;28.36;38.69;95374.47;6260884;27;103809;-58
2022/07/23 08:03:33;;;;;;;10.23;9.37;;;;;;;28.39;38.56;95373.00;6257551;27;103925;-58
2022/07/23 08:06:39;;;;;;;10.13;9.33;;;;;;;28.29;38.36;95368.88;6250757;27;104157;-58
2022/07/23 08:09:42;;;;;;;10.90;10.10;;;;;;;28.16;39.58;95363.81;6260552;27;104195;-57
2022/07/23 08:12:47;;;;;;;11.37;10.47;;;;;;;28.04;39.53;95353.84;6258517;27;103041;-57
2022/07/23 08:15:52;;;;;;;11.43;10.17;;;;;;;27.96;39.29;95352.84;6259323;27;103128;-57
2022/07/23 08:18:57;;;;;;;11.67;10.67;;;;;;;27.92;39.50;95351.94;6250403;27;103432;-57
2022/07/23 08:22:00;;;;;;;10.50;9.50;;;;;;;27.88;39.41;95352.94;6256658;27;103370;-58
2022/07/23 08:25:03;;;;;;;10.60;9.83;;;;;;;27.84;39.44;95355.50;6260053;27;103618;-58
2022/07/23 08:28:09;;;;;;;10.07;9.27;;;;;;;27.81;39.95;95358.84;6259983;27;103119;-57
2022/07/23 08:31:12;;;;;;;13.03;10.07;;;;;;;27.75;39.53;95352.91;6249827;27;103650;-57
2022/07/23 08:34:17;;;;;;;10.13;9.23;;;;;;;27.84;40.04;95346.63;6257413;27;103503;-57
2022/07/23 08:37:20;;;;;;;9.67;8.80;;;;;;;27.98;39.37;95350.59;6260360;27;103707;-57
2022/07/23 08:40:24;;;;;;;9.80;8.90;;;;;;;28.14;38.66;95348.03;6255495;27;103202;-57
2022/07/23 08:43:28;;;;;;;10.13;8.93;;;;;;;28.27;38.37;95348.81;6253159;27;103930;-56
2022/07/23 08:46:32;;;;;;;9.23;8.33;;;;;;;28.32;38.39;95354.72;6260760;27;103518;-57
2022/07/23 08:49:37;;;;;;;9.97;9.00;;;;;;;28.37;37.77;95345.63;6260435;27;103975;-57
2022/07/23 08:52:41;;;;;;;13.93;9.27;;;;;;;28.41;38.18;95346.53;6246919;27;104001;-58
2022/07/23 08:55:46;;;;;;;11.53;9.17;;;;;;;28.45;37.33;95350.13;6259812;27;103214;-57
2022/07/23 08:58:49;;;;;;;13.63;9.77;;;;;;;28.49;37.86;95347.56;6259409;27;103373;-57
2022/07/23 09:01:52;;;;;;;9.93;9.03;;;;;;;28.52;37.85;95342.28;6256031;27;103704;-57
2022/07/23 09:04:57;;;;;;;9.47;8.57;;;;;;;28.54;37.67;95340.03;6248933;27;102905;-57
2022/07/23 09:08:09;;;;;;;10.23;9.13;;;;;;;28.55;37.24;95336.19;6259612;27;103046;-57
2022/07/23 09:11:14;;;;;;;12.43;8.80;;;;;;;28.59;37.26;95339.03;6260053;27;102977;-57
2022/07/23 09:14:37;;;;;;;9.27;8.47;;;;;;;28.46;38.24;95334.78;6252197;27;103928;-58
2022/07/23 09:17:43;;;;;;;11.87;9.20;;;;;;;28.40;37.77;95333.44;6259504;27;104916;-58
2022/07/23 09:20:47;;;;;;;11.10;10.03;;;;;;;28.31;38.24;95328.94;6254579;27;103845;-59
2022/07/23 09:23:56;;;;;;;10.47;9.57;;;;;;;28.22;38.10;95332.88;6255935;27;102838;-59
2022/07/23 09:26:59;;;;;;;9.90;9.07;;;;;;;28.17;37.96;95328.50;6250498;27;103576;-60
2022/07/23 09:30:06;;;;;;;11.57;9.47;;;;;;;28.13;38.71;95329.53;6258519;27;103222;-58
2022/07/23 09:33:12;;;;;;;9.13;8.30;;;;;;;28.00;39.10;95326.84;6256920;27;102809;-61
2022/07/23 09:36:16;;;;;;;10.07;9.13;;;;;;;27.96;38.83;95320.56;6258868;27;103303;-58
2022/07/23 09:39:27;;;;;;;10.53;9.43;;;;;;;27.98;39.12;95320.22;6248694;27;103155;-58
2022/07/23 09:42:30;;;;;;;10.83;9.70;;;;;;;28.12;38.56;95317.19;6255296;27;104256;-58
2022/07/23 09:45:34;;;;;;;10.83;9.90;;;;;;;28.24;38.14;95309.91;6259001;27;103603;-58
2022/07/23 09:48:38;;;;;;;12.70;9.47;;;;;;;28.34;38.33;95308.63;6251258;27;104290;-58
2022/07/23 09:51:51;;;;;;;10.33;9.20;;;;;;;28.42;37.68;95304.25;6254835;27;104108;-58
2022/07/23 09:55:00;;;;;;;10.13;9.20;;;;;;;28.48;38.38;95301.00;6258548;27;103059;-58
2022/07/23 09:58:03;;;;;;;10.20;9.30;;;;;;;28.54;37.81;95302.31;6259140;27;103248;-58
2022/07/23 10:01:07;;;;;;;9.77;8.97;;;;;;;28.57;37.72;95292.81;6248675;27;104160;-58
2022/07/23 10:04:12;;;;;;;9.43;8.53;;;;;;;28.60;38.23;95289.41;6254043;27;102996;-58
2022/07/23 10:07:22;;;;;;;10.50;8.90;;;;;;;28.64;37.98;95284.91;6258634;27;103128;-58
2022/07/23 10:10:28;;;;;;;9.27;8.43;;;;;;;28.65;37.67;95281.88;6258866;27;103232;-58
2022/07/23 10:16:52;;;;;;;9.57;8.70;;;;;;;28.66;37.73;95277.28;6263281;27;103133;-58
2022/07/23 10:19:55;;;;;;;10.83;9.17;;;;;;;28.49;38.54;95277.56;6262250;27;103044;-58
2022/07/23 10:23:17;;;;;;;9.47;8.57;;;;;;;28.33;39.01;95272.06;6249591;27;103164;-58
2022/07/23 10:26:28;;;;;;;9.80;8.47;;;;;;;28.22;39.27;95274.44;6263156;27;103820;-64
2022/07/23 10:29:43;;;;;;;12.47;8.90;;;;;;;28.19;39.38;95264.34;6263059;27;103192;-59
2022/07/23 10:32:57;;;;;;;9.83;9.03;;;;;;;28.17;39.47;95268.50;6259414;27;104314;-58
2022/07/23 10:36:08;;;;;;;10.83;9.83;;;;;;;28.14;38.88;95264.59;6252540;27;104505;-59
2022/07/23 10:39:20;;;;;;;9.30;8.43;;;;;;;28.08;39.69;95257.09;6263527;27;102984;-59
2022/07/23 10:42:34;;;;;;;9.67;8.67;;;;;;;28.04;39.06;95263.13;6258829;27;103336;-57
2022/07/23 10:45:37;;;;;;;8.90;8.10;;;;;;;28.02;38.77;95245.78;6252661;27;103269;-58
2022/07/23 10:48:41;;;;;;;9.47;8.67;;;;;;;27.94;39.62;95250.16;6262186;27;103478;-58
2022/07/23 10:52:21;;;;;;;10.43;9.17;;;;;;;27.90;39.32;95249.28;6258877;27;104125;-58
2022/07/23 10:55:51;;;;;;;9.03;8.30;;;;;;;27.98;39.16;95242.97;6262438;27;104471;-58
2022/07/23 10:59:04;;;;;;;9.40;8.60;;;;;;;28.16;38.88;95237.34;6251845;27;104150;-58
2022/07/23 11:02:32;;;;;;;8.03;7.33;;;;;;;28.28;38.74;95231.94;6256640;27;103980;-58
2022/07/23 11:05:42;;;;;;;8.80;8.00;;;;;;;28.40;38.63;95220.34;6250480;27;103586;-58
2022/07/23 11:08:45;;;;;;;10.07;7.70;;;;;;;28.49;38.09;95224.47;6252035;27;103199;-58
2022/07/23 11:11:50;;;;;;;10.50;9.20;;;;;;;28.57;37.79;95220.09;6258195;27;103241;-58
2022/07/23 11:15:00;;;;;;;8.43;7.63;;;;;;;28.63;37.58;95210.63;6261475;27;104278;-58
2022/07/23 11:18:03;;;;;;;9.00;7.87;;;;;;;28.68;37.51;95217.66;6262161;27;103165;-58
2022/07/23 11:21:39;;;;;;;8.37;7.67;;;;;;;28.70;37.86;95208.13;6251132;27;103263;-58
2022/07/23 11:24:52;;;;;;;8.07;7.37;;;;;;;28.73;37.80;95206.63;6259175;27;104062;-59
2022/07/23 11:28:10;;;;;;;9.23;7.33;;;;;;;28.75;37.61;95199.03;6261891;27;102983;-58
2022/07/23 11:31:18;;;;;;;8.23;7.53;;;;;;;28.79;37.94;95202.59;6251329;27;103478;-58
2022/07/23 11:34:32;;;;;;;7.80;7.20;;;;;;;28.80;37.77;95196.06;6255707;27;102971;-59
2022/07/23 11:37:39;;;;;;;8.37;7.67;;;;;;;28.78;37.51;95190.25;6261819;27;103940;-59
2022/07/23 11:40:44;;;;;;;9.40;7.80;;;;;;;28.79;38.04;95189.13;6262094;27;103905;-59
2022/07/23 11:43:49;;;;;;;8.20;7.50;;;;;;;28.80;38.05;95188.00;6246590;27;104927;-57
2022/07/23 11:46:56;;;;;;;8.37;7.57;;;;;;;28.80;37.74;95183.38;6261484;27;103364;-58
2022/07/23 11:50:02;;;;;;;8.23;7.37;;;;;;;28.79;37.96;95189.13;6261282;27;103034;-58
2022/07/23 11:53:05;;;;;;;8.03;7.23;;;;;;;28.77;37.63;95180.59;6252424;27;103324;-57
2022/07/23 11:56:10;;;;;;;8.37;7.10;;;;;;;28.71;37.98;95187.34;6255008;27;105395;-58
2022/07/23 11:59:17;;;;;;;7.90;7.20;;;;;;;28.55;37.75;95182.72;6261706;27;103020;-58
2022/07/23 12:02:21;;;;;;;6.97;6.27;;;;;;;28.31;38.16;95178.19;6258540;27;103363;-58
2022/07/23 12:05:27;;;;;;;7.47;6.77;;;;;;;28.25;38.46;95173.41;6249120;27;104176;-56
2022/07/23 12:08:30;;;;;;;7.53;6.90;;;;;;;28.22;38.01;95166.78;6261819;27;104170;-59
2022/07/23 12:11:33;;;;;;;8.20;7.37;;;;;;;28.18;38.49;95163.22;6259475;27;104124;-58
2022/07/23 12:14:48;;;;;;;8.27;7.20;;;;;;;28.12;38.29;95171.88;6258532;27;104235;-57
2022/07/23 12:17:53;;;;;;;8.13;7.17;;;;;;;28.10;39.03;95160.69;6250291;27;103606;-58
2022/07/23 12:20:59;;;;;;;7.73;6.97;;;;;;;28.21;38.49;95164.44;6261292;27;103230;-58
2022/07/23 12:24:07;;;;;;;8.40;6.87;;;;;;;28.30;38.41;95163.19;6257113;27;104318;-57
2022/07/23 12:27:11;;;;;;;9.70;7.13;;;;;;;28.40;38.53;95150.38;6255810;27;103659;-57
2022/07/23 12:30:27;;;;;;;7.33;6.50;;;;;;;28.49;37.26;95146.41;6255040;27;103058;-58
2022/07/23 12:33:38;;;;;;;8.33;7.27;;;;;;;28.55;37.78;95145.00;6256222;27;102799;-57
2022/07/23 12:36:42;;;;;;;7.40;6.70;;;;;;;28.61;37.33;95148.25;6258701;27;103355;-57
2022/07/23 12:39:48;;;;;;;7.23;6.07;;;;;;;28.64;37.44;95145.66;6250452;27;104367;-57
2022/07/23 12:42:53;;;;;;;6.80;6.17;;;;;;;28.67;37.34;95144.16;6256802;27;104182;-57
2022/07/23 12:46:03;;;;;;;7.90;6.50;;;;;;;28.70;37.04;95142.69;6259543;27;104005;-57
2022/07/23 12:49:06;;;;;;;7.73;6.90;;;;;;;28.72;36.94;95151.22;6260048;27;103040;-58
2022/07/23 12:52:16;;;;;;;7.80;7.00;;;;;;;28.74;36.63;95138.97;6246327;27;103192;-57
2022/07/23 12:55:28;;;;;;;7.23;6.50;;;;;;;28.77;37.15;95132.13;6258389;27;103057;-57
2022/07/23 12:58:48;;;;;;;8.47;6.50;;;;;;;28.68;37.14;95126.88;6258942;27;103287;-58
2022/07/23 13:01:58;;;;;;;7.30;6.60;;;;;;;28.56;37.50;95135.03;6246575;27;104118;-57
2022/07/23 13:05:01;;;;;;;8.17;6.87;;;;;;;28.39;37.06;95132.63;6237655;27;103864;-58
2022/07/23 13:08:05;;;;;;;8.20;6.53;;;;;;;28.26;37.54;95126.53;6258026;27;103671;-58
2022/07/23 13:11:09;;;;;;;8.23;6.27;;;;;;;28.18;38.02;95119.38;6257618;27;104032;-58
2022/07/23 13:14:14;;;;;;;8.93;6.47;;;;;;;28.14;37.49;95134.66;6244280;27;104883;-58
2022/07/23 13:17:18;;;;;;;7.33;6.63;;;;;;;28.09;37.39;95124.13;6257767;27;103940;-58
2022/07/23 13:20:22;;;;;;;9.30;6.30;;;;;;;28.05;38.00;95114.03;6258582;27;104368;-58
2022/07/23 13:23:27;;;;;;;7.80;6.17;;;;;;;28.18;37.17;95122.06;6254490;27;104316;-58
2022/07/23 13:26:31;;;;;;;9.27;6.33;;;;;;;28.32;37.84;95120.53;6246417;27;104225;-58
2022/07/23 13:29:35;;;;;;;7.97;6.13;;;;;;;28.41;36.95;95120.41;6257744;27;103185;-58
2022/07/23 13:32:40;;;;;;;6.83;5.70;;;;;;;28.53;37.19;95124.94;6254401;27;104416;-58
2022/07/23 13:35:43;;;;;;;10.87;6.70;;;;;;;28.56;36.80;95110.78;6247694;27;105374;-58
2022/07/23 13:38:46;;;;;;;6.77;5.93;;;;;;;28.67;36.58;95119.94;6257362;27;103154;-58
2022/07/23 13:41:50;;;;;;;9.00;6.47;;;;;;;28.73;36.84;95117.75;6255121;27;102911;-58
2022/07/23 13:44:54;;;;;;;9.87;6.10;;;;;;;28.74;36.74;95114.75;6256200;27;104029;-58
2022/07/23 13:47:59;;;;;;;7.80;7.00;;;;;;;28.76;36.68;95109.78;6246820;27;104559;-57
2022/07/23 13:51:02;;;;;;;6.90;6.17;;;;;;;28.80;35.75;95110.66;6262902;27;104210;-58
2022/07/23 13:54:05;;;;;;;7.50;6.13;;;;;;;28.78;35.97;95102.13;6259239;27;104288;-58
2022/07/23 13:57:11;;;;;;;8.27;6.33;;;;;;;28.65;36.57;95098.75;6261769;27;104033;-57
2022/07/23 14:00:15;;;;;;;6.70;5.43;;;;;;;28.54;36.71;95102.28;6252490;27;104331;-58
2022/07/23 14:03:39;;;;;;;7.07;6.37;;;;;;;28.38;37.02;95096.06;6258090;27;103389;-58
2022/07/23 14:06:43;;;;;;;6.63;5.83;;;;;;;28.27;36.63;95091.19;6261857;27;105108;-57
2022/07/23 14:09:55;;;;;;;7.97;5.90;;;;;;;28.23;36.50;95086.84;6251781;27;103213;-57
2022/07/23 14:12:58;;;;;;;6.17;5.57;;;;;;;28.19;37.04;95089.44;6257580;27;104281;-57
2022/07/23 14:16:02;;;;;;;7.97;5.70;;;;;;;28.16;37.41;95086.66;6260617;27;103088;-57
2022/07/23 14:19:07;;;;;;;6.77;6.17;;;;;;;28.20;37.19;95093.69;6261282;27;103039;-58
2022/07/23 14:22:16;;;;;;;6.57;5.93;;;;;;;28.37;36.75;95097.97;6247050;27;103104;-57